createdAt,value
2022-09-03T00:00:55.633Z,16.60
2022-09-03T00:03:40.210Z,16.50
2022-09-03T00:06:18.143Z,16.50
2022-09-03T00:08:54.318Z,16.50
2022-09-03T00:11:27.225Z,16.50
2022-09-03T00:14:06.110Z,16.50
2022-09-03T00:17:11.277Z,16.50
2022-09-03T00:19:53.893Z,16.50
2022-09-03T00:22:49.851Z,16.50
2022-09-03T00:25:42.988Z,16.50
2022-09-03T00:28:44.147Z,16.50
2022-09-03T00:31:32.895Z,16.50
2022-09-03T00:34:15.467Z,16.50
2022-09-03T00:36:44.622Z,16.50
2022-09-03T00:39:17.820Z,16.50
2022-09-03T00:42:23.686Z,16.60
2022-09-03T00:44:56.940Z,16.50
2022-09-03T00:47:41.947Z,16.50
2022-09-03T00:50:41.039Z,16.40
2022-09-03T00:53:31.320Z,16.50
2022-09-03T00:56:02.371Z,16.50
2022-09-03T00:59:03.742Z,16.50
2022-09-03T01:01:50.173Z,16.50
2022-09-03T01:04:21.706Z,16.50
2022-09-03T01:07:31.227Z,16.60
2022-09-03T01:10:24.988Z,16.50
2022-09-03T01:13:13.087Z,16.50
2022-09-03T01:15:57.974Z,16.60
2022-09-03T01:18:36.947Z,16.40
2022-09-03T01:21:31.686Z,16.40
2022-09-03T01:24:13.459Z,16.40
2022-09-03T01:27:11.102Z,16.40
2022-09-03T01:30:04.296Z,16.40
2022-09-03T01:32:57.240Z,16.40
2022-09-03T01:35:34.975Z,16.40
2022-09-03T01:38:24.541Z,16.30
2022-09-03T01:41:20.295Z,16.30
2022-09-03T01:44:04.144Z,16.20
2022-09-03T01:46:39.485Z,16.20
2022-09-03T01:49:22.827Z,16.20
2022-09-03T01:52:05.726Z,16.20
2022-09-03T01:54:50.510Z,16.10
2022-09-03T01:57:36.975Z,16.20
2022-09-03T02:00:13.787Z,16.20
2022-09-03T02:02:43.448Z,16.20
2022-09-03T02:05:24.209Z,16.30
2022-09-03T02:07:57.364Z,16.30
2022-09-03T02:10:47.651Z,16.30
2022-09-03T02:13:46.154Z,16.30
2022-09-03T02:16:20.772Z,16.20
2022-09-03T02:18:52.092Z,16.20
2022-09-03T02:21:22.479Z,16.20
2022-09-03T02:23:50.082Z,16.10
2022-09-03T02:26:22.352Z,16.10
2022-09-03T02:28:50.635Z,16.10
2022-09-03T02:31:17.803Z,16.20
2022-09-03T02:33:47.362Z,16.20
2022-09-03T02:36:17.938Z,16.20
2022-09-03T02:38:45.830Z,16.20
2022-09-03T02:41:14.128Z,16.10
2022-09-03T02:44:09.275Z,16.10
2022-09-03T02:46:43.554Z,16.20
2022-09-03T02:49:10.505Z,16.10
2022-09-03T02:51:40.131Z,16.20
2022-09-03T02:54:08.148Z,16.10
2022-09-03T02:56:35.120Z,16.10
2022-09-03T02:59:02.927Z,16.10
2022-09-03T03:01:29.822Z,16.00
2022-09-03T03:03:59.431Z,15.90
2022-09-03T03:06:27.072Z,16.00
2022-09-03T03:08:57.798Z,15.90
2022-09-03T03:11:26.264Z,15.80
2022-09-03T03:13:53.453Z,15.80
2022-09-03T03:16:20.429Z,15.80
2022-09-03T03:18:47.408Z,15.80
2022-09-03T03:21:18.659Z,15.70
2022-09-03T03:23:45.552Z,15.80
2022-09-03T03:26:15.435Z,15.70
2022-09-03T03:28:42.359Z,15.60
2022-09-03T03:31:14.863Z,15.60
2022-09-03T03:33:42.728Z,15.50
2022-09-03T03:36:12.875Z,15.50
2022-09-03T03:38:40.716Z,15.50
2022-09-03T03:41:17.028Z,15.40
2022-09-03T03:43:44.645Z,15.30
2022-09-03T03:46:15.083Z,15.30
2022-09-03T03:48:42.005Z,15.30
2022-09-03T03:51:11.720Z,15.40
2022-09-03T03:53:39.173Z,15.30
2022-09-03T03:56:09.849Z,15.20
2022-09-03T03:58:37.446Z,15.20
2022-09-03T04:01:07.436Z,15.20
2022-09-03T04:03:35.434Z,15.10
2022-09-03T04:06:02.789Z,15.10
2022-09-03T04:08:29.720Z,15.10
2022-09-03T04:11:01.332Z,15.00
2022-09-03T04:13:32.446Z,15.20
2022-09-03T04:16:14.874Z,15.10
2022-09-03T04:18:42.057Z,14.90
2022-09-03T04:21:15.217Z,15.00
2022-09-03T04:23:44.366Z,14.90
2022-09-03T04:26:15.597Z,15.00
2022-09-03T04:28:42.522Z,15.00
2022-09-03T04:31:11.274Z,15.00
2022-09-03T04:33:39.426Z,14.90
2022-09-03T04:36:16.995Z,14.80
2022-09-03T04:38:46.841Z,14.90
2022-09-03T04:41:19.964Z,14.80
2022-09-03T04:43:51.371Z,14.70
2022-09-03T04:46:20.676Z,14.70
2022-09-03T04:48:52.865Z,14.60
2022-09-03T04:51:27.449Z,14.60
2022-09-03T04:54:00.202Z,14.70
2022-09-03T04:56:34.845Z,14.70
2022-09-03T04:59:08.499Z,14.70
2022-09-03T05:01:37.320Z,14.70
2022-09-03T05:04:05.162Z,14.60
2022-09-03T05:06:32.672Z,14.60
2022-09-03T05:09:00.156Z,14.60
2022-09-03T05:11:29.165Z,14.50
2022-09-03T05:13:58.216Z,14.60
2022-09-03T05:16:26.557Z,14.80
2022-09-03T05:18:54.619Z,14.70
2022-09-03T05:21:22.498Z,14.60
2022-09-03T05:23:50.920Z,14.50
2022-09-03T05:26:24.150Z,14.40
2022-09-03T05:28:58.781Z,14.50
2022-09-03T05:31:28.344Z,14.60
2022-09-03T05:33:58.537Z,14.70
2022-09-03T05:36:28.240Z,14.90
2022-09-03T05:38:55.861Z,14.90
2022-09-03T05:41:23.555Z,15.10
2022-09-03T05:44:01.029Z,15.10
2022-09-03T05:46:32.176Z,15.10
2022-09-03T05:49:09.278Z,15.10
2022-09-03T05:51:37.340Z,15.20
2022-09-03T05:54:05.190Z,15.30
2022-09-03T05:56:33.508Z,15.30
2022-09-03T05:59:05.622Z,15.30
2022-09-03T06:01:45.716Z,15.30
2022-09-03T06:04:17.721Z,15.40
2022-09-03T06:06:46.989Z,15.50
2022-09-03T06:09:19.689Z,15.70
2022-09-03T06:11:49.613Z,15.70
2022-09-03T06:14:17.667Z,15.80
2022-09-03T06:16:48.899Z,15.80
2022-09-03T06:19:16.324Z,15.80
2022-09-03T06:21:44.730Z,15.80
2022-09-03T06:24:14.859Z,15.90
2022-09-03T06:26:43.038Z,16.10
2022-09-03T06:29:10.658Z,16.30
2022-09-03T06:31:37.828Z,16.20
2022-09-03T06:34:06.110Z,16.30
2022-09-03T06:36:33.129Z,16.50
2022-09-03T06:39:00.267Z,16.60
2022-09-03T06:41:33.772Z,16.70
2022-09-03T06:44:06.378Z,16.80
2022-09-03T06:46:35.745Z,16.80
2022-09-03T06:49:02.770Z,16.80
2022-09-03T06:51:31.665Z,17.00
2022-09-03T06:54:07.764Z,17.50
2022-09-03T06:56:40.249Z,17.90
2022-09-03T06:59:13.610Z,18.00
2022-09-03T07:01:44.698Z,18.30
2022-09-03T07:04:13.257Z,18.50
2022-09-03T07:06:42.628Z,18.90
2022-09-03T07:09:11.895Z,19.10
2022-09-03T07:11:46.712Z,19.10
2022-09-03T07:14:15.087Z,18.90
2022-09-03T07:16:43.086Z,18.60
2022-09-03T07:19:10.501Z,18.50
2022-09-03T07:21:37.887Z,18.30
2022-09-03T07:24:05.984Z,18.20
2022-09-03T07:26:35.574Z,18.50
2022-09-03T07:29:02.645Z,19.10
2022-09-03T07:31:42.409Z,19.90
2022-09-03T07:34:12.622Z,20.90
2022-09-03T07:36:43.126Z,21.50
2022-09-03T07:39:12.069Z,22.10
2022-09-03T07:41:39.553Z,22.50
2022-09-03T07:44:08.736Z,22.80
2022-09-03T07:46:37.954Z,23.40
2022-09-03T07:49:06.363Z,23.40
2022-09-03T07:51:38.510Z,23.80
2022-09-03T07:54:09.958Z,24.10
2022-09-03T07:56:38.778Z,24.30
2022-09-03T07:59:05.895Z,24.20
2022-09-03T08:01:33.904Z,24.20
2022-09-03T08:04:02.618Z,23.60
2022-09-03T08:06:30.702Z,23.70
2022-09-03T08:09:04.122Z,24.20
2022-09-03T08:11:34.685Z,24.40
2022-09-03T08:14:06.637Z,24.50
2022-09-03T08:16:42.353Z,24.30
2022-09-03T08:19:11.339Z,24.00
2022-09-03T08:21:40.018Z,24.10
2022-09-03T08:24:06.937Z,24.20
2022-09-03T08:26:36.501Z,24.10
2022-09-03T08:29:05.096Z,24.60
2022-09-03T08:31:32.558Z,24.90
2022-09-03T08:34:06.669Z,25.00
2022-09-03T08:36:36.810Z,25.20
2022-09-03T08:39:09.753Z,25.20
2022-09-03T08:42:03.507Z,25.20
2022-09-03T08:45:00.244Z,25.40
2022-09-03T08:47:38.896Z,25.00
2022-09-03T08:50:19.497Z,24.80
2022-09-03T08:52:50.329Z,25.10
2022-09-03T08:55:31.824Z,24.80
2022-09-03T08:58:18.618Z,25.20
2022-09-03T09:01:04.242Z,25.60
2022-09-03T09:04:01.853Z,25.60
2022-09-03T09:06:39.914Z,25.50
2022-09-03T09:09:18.559Z,25.60
2022-09-03T09:11:54.417Z,24.90
2022-09-03T09:14:41.295Z,24.60
2022-09-03T09:17:35.284Z,24.90
2022-09-03T09:20:09.513Z,25.00
2022-09-03T09:22:43.873Z,24.80
2022-09-03T09:25:19.343Z,24.70
2022-09-03T09:27:56.067Z,25.00
2022-09-03T09:30:23.059Z,25.00
2022-09-03T09:32:49.876Z,25.30
2022-09-03T09:35:18.787Z,25.30
2022-09-03T09:37:57.468Z,24.90
2022-09-03T09:40:34.782Z,24.80
2022-09-03T09:43:10.894Z,24.70
2022-09-03T09:45:43.153Z,23.90
2022-09-03T09:48:19.147Z,23.90
2022-09-03T09:50:46.267Z,24.20
2022-09-03T09:53:16.502Z,24.50
2022-09-03T09:55:51.541Z,24.80
2022-09-03T09:58:21.377Z,24.80
2022-09-03T10:01:14.162Z,24.20
2022-09-03T10:03:56.086Z,24.30
2022-09-03T10:06:50.024Z,24.50
2022-09-03T10:09:20.070Z,24.60
2022-09-03T10:11:52.271Z,24.60
2022-09-03T10:14:23.103Z,24.60
2022-09-03T10:17:04.244Z,24.90
2022-09-03T10:20:24.427Z,24.60
2022-09-03T10:22:57.335Z,24.70
2022-09-03T10:25:31.343Z,25.10
2022-09-03T10:28:00.967Z,24.80
2022-09-03T10:30:31.659Z,25.00
2022-09-03T10:33:24.150Z,25.30
2022-09-03T10:35:57.843Z,24.90
2022-09-03T10:38:31.107Z,25.10
2022-09-03T10:41:16.578Z,25.20
2022-09-03T10:44:17.331Z,25.30
2022-09-03T10:47:00.811Z,25.50
2022-09-03T10:50:02.658Z,25.70
2022-09-03T10:52:58.979Z,25.70
2022-09-03T10:55:40.566Z,25.80
2022-09-03T10:58:25.757Z,25.30
2022-09-03T11:00:58.396Z,24.60
2022-09-03T11:03:48.348Z,24.70
2022-09-03T11:06:15.311Z,24.50
2022-09-03T11:08:55.518Z,24.60
2022-09-03T11:11:38.073Z,24.40
2022-09-03T11:14:10.781Z,24.50
2022-09-03T11:16:45.082Z,24.80
2022-09-03T11:19:18.273Z,24.90
2022-09-03T11:21:48.004Z,24.60
2022-09-03T11:24:22.293Z,24.80
2022-09-03T11:27:21.358Z,25.30
2022-09-03T11:30:07.087Z,24.70
2022-09-03T11:32:59.738Z,24.90
2022-09-03T11:35:37.126Z,24.50
2022-09-03T11:38:27.354Z,24.60
2022-09-03T11:40:59.075Z,24.90
2022-09-03T11:43:30.238Z,24.30
2022-09-03T11:46:05.708Z,24.00
2022-09-03T11:48:47.425Z,23.70
2022-09-03T11:51:37.750Z,23.50
2022-09-03T11:54:25.940Z,23.80
2022-09-03T11:57:14.804Z,24.10
2022-09-03T11:59:44.842Z,24.60
2022-09-03T12:02:18.108Z,24.00
2022-09-03T12:04:54.358Z,23.70
2022-09-03T12:07:44.253Z,24.10
2022-09-03T12:10:36.392Z,24.60
2022-09-03T12:13:38.319Z,25.00
2022-09-03T12:16:32.262Z,25.30
2022-09-03T12:19:12.727Z,24.90
2022-09-03T12:21:41.019Z,24.60
2022-09-03T12:24:13.332Z,24.70
2022-09-03T12:26:43.087Z,25.10
2022-09-03T12:29:28.180Z,24.70
2022-09-03T12:32:07.556Z,24.30
2022-09-03T12:34:34.948Z,24.00
2022-09-03T12:37:02.312Z,23.40
2022-09-03T12:42:26.066Z,24.20
2022-09-03T12:44:53.160Z,24.10
2022-09-03T12:47:40.326Z,24.00
2022-09-03T12:50:20.282Z,23.80
2022-09-03T12:52:55.241Z,24.00
2022-09-03T12:55:33.873Z,24.30
2022-09-03T12:58:26.610Z,24.10
2022-09-03T13:00:56.509Z,24.30
2022-09-03T13:03:40.918Z,24.60
2022-09-03T13:06:11.266Z,24.20
2022-09-03T13:08:45.988Z,24.00
2022-09-03T13:11:17.116Z,23.70
2022-09-03T13:14:00.198Z,23.40
2022-09-03T13:16:45.703Z,23.40
2022-09-03T13:19:31.590Z,23.50
2022-09-03T13:22:16.466Z,23.60
2022-09-03T13:25:16.911Z,23.50
2022-09-03T13:28:13.794Z,23.50
2022-09-03T13:31:09.049Z,23.80
2022-09-03T13:33:46.350Z,24.10
2022-09-03T13:36:25.047Z,24.40
2022-09-03T13:39:06.153Z,24.50
2022-09-03T13:41:50.277Z,24.40
2022-09-03T13:44:45.165Z,24.30
2022-09-03T13:47:37.704Z,24.20
2022-09-03T13:50:28.349Z,23.70
2022-09-03T13:53:07.513Z,23.70
2022-09-03T13:55:50.914Z,23.50
2022-09-03T13:58:38.500Z,23.20
2022-09-03T14:01:20.524Z,23.30
2022-09-03T14:04:25.534Z,23.40
2022-09-03T14:07:02.896Z,23.30
2022-09-03T14:09:56.500Z,23.10
2022-09-03T14:12:34.455Z,22.80
2022-09-03T14:15:20.721Z,22.90
2022-09-03T14:17:57.585Z,23.10
2022-09-03T14:20:33.287Z,23.00
2022-09-03T14:23:10.746Z,23.10
2022-09-03T14:25:42.836Z,23.00
2022-09-03T14:28:40.022Z,23.00
2022-09-03T14:31:25.333Z,22.70
2022-09-03T14:34:31.172Z,22.80
2022-09-03T14:37:35.838Z,23.10
2022-09-03T14:40:24.234Z,23.20
2022-09-03T14:43:04.162Z,23.20
2022-09-03T14:45:51.317Z,22.80
2022-09-03T14:49:02.183Z,22.80
2022-09-03T14:51:57.615Z,22.50
2022-09-03T14:54:34.834Z,22.70
2022-09-03T14:57:23.862Z,22.80
2022-09-03T15:00:20.029Z,22.80
2022-09-03T15:02:53.111Z,22.80
2022-09-03T15:05:28.536Z,22.70
2022-09-03T15:08:34.187Z,22.70
2022-09-03T15:11:15.745Z,22.60
2022-09-03T15:13:52.485Z,22.40
2022-09-03T15:16:36.495Z,22.50
2022-09-03T15:19:25.195Z,22.50
2022-09-03T15:21:55.002Z,22.20
2022-09-03T15:24:37.373Z,22.20
2022-09-03T15:27:11.672Z,22.00
2022-09-03T15:30:05.218Z,22.20
2022-09-03T15:32:46.421Z,22.30
2022-09-03T15:35:55.739Z,22.40
2022-09-03T15:38:28.912Z,22.20
2022-09-03T15:41:03.035Z,22.20
2022-09-03T15:43:31.464Z,22.20
2022-09-03T15:46:00.370Z,22.10
2022-09-03T15:48:31.094Z,22.00
2022-09-03T15:51:25.625Z,22.00
2022-09-03T15:54:18.965Z,22.00
2022-09-03T15:57:09.101Z,21.80
2022-09-03T16:00:06.447Z,22.00
2022-09-03T16:02:58.981Z,22.10
2022-09-03T16:05:42.622Z,22.20
2022-09-03T16:08:46.731Z,22.10
2022-09-03T16:11:34.958Z,21.90
2022-09-03T16:14:10.484Z,21.70
2022-09-03T16:16:55.014Z,21.50
2022-09-03T16:19:24.953Z,21.30
2022-09-03T16:22:14.414Z,21.00
2022-09-03T16:24:56.265Z,21.20
2022-09-03T16:27:52.955Z,21.20
2022-09-03T16:30:40.247Z,21.20
2022-09-03T16:33:30.502Z,21.10
2022-09-03T16:36:16.938Z,21.10
2022-09-03T16:38:59.017Z,21.10
2022-09-03T16:41:47.266Z,21.20
2022-09-03T16:44:50.658Z,21.00
2022-09-03T16:47:45.537Z,20.80
2022-09-03T16:50:45.968Z,20.70
2022-09-03T16:53:30.867Z,20.60
2022-09-03T16:56:07.771Z,20.60
2022-09-03T16:58:59.154Z,20.70
2022-09-03T17:01:56.707Z,20.50
2022-09-03T17:04:38.703Z,20.60
2022-09-03T17:07:36.618Z,20.60
2022-09-03T17:10:23.390Z,20.70
2022-09-03T17:13:09.166Z,20.80
2022-09-03T17:15:47.923Z,20.80
2022-09-03T17:18:53.588Z,20.60
2022-09-03T17:21:38.613Z,20.40
2022-09-03T17:24:27.574Z,20.40
2022-09-03T17:27:36.547Z,20.30
2022-09-03T17:30:28.151Z,20.20
2022-09-03T17:33:05.419Z,20.20
2022-09-03T17:35:38.091Z,20.10
2022-09-03T17:38:21.821Z,20.20
2022-09-03T17:41:19.100Z,20.20
2022-09-03T17:44:14.829Z,20.00
2022-09-03T17:46:46.519Z,20.00
2022-09-03T17:49:29.473Z,19.90
2022-09-03T17:52:08.529Z,19.90
2022-09-03T17:54:48.778Z,19.80
2022-09-03T17:57:25.127Z,19.70
2022-09-03T18:00:08.308Z,19.40
2022-09-03T18:02:44.032Z,19.30
2022-09-03T18:05:27.661Z,19.30
2022-09-03T18:08:24.749Z,19.30
2022-09-03T18:11:47.182Z,19.30
2022-09-03T18:14:24.273Z,19.10
2022-09-03T18:17:05.424Z,19.10
2022-09-03T18:20:12.808Z,19.00
2022-09-03T18:23:20.271Z,19.00
2022-09-03T18:26:13.737Z,18.90
2022-09-03T18:29:23.617Z,18.80
2022-09-03T18:32:08.918Z,18.90
2022-09-03T18:34:55.877Z,18.90
2022-09-03T18:37:43.772Z,18.90
2022-09-03T18:40:40.768Z,18.80
2022-09-03T18:43:36.684Z,18.70
2022-09-03T18:49:53.152Z,18.70
2022-09-03T18:52:47.692Z,18.60
2022-09-03T18:55:39.019Z,18.60
2022-09-03T18:58:56.014Z,18.60
2022-09-03T19:01:55.359Z,18.50
2022-09-03T19:04:43.941Z,18.40
2022-09-03T19:08:01.520Z,18.50
2022-09-03T19:11:13.086Z,18.40
2022-09-03T19:13:59.726Z,18.30
2022-09-03T19:17:06.887Z,18.30
2022-09-03T19:20:29.930Z,18.20
2022-09-03T19:23:15.362Z,18.10
2022-09-03T19:26:01.439Z,18.20
2022-09-03T19:28:49.904Z,18.10
2022-09-03T19:31:56.536Z,18.10
2022-09-03T19:35:12.990Z,18.20
2022-09-03T19:38:32.480Z,18.20
2022-09-03T19:41:37.091Z,18.10
2022-09-03T19:44:22.373Z,18.10
2022-09-03T19:47:20.713Z,18.00
2022-09-03T19:50:18.636Z,17.90
2022-09-03T19:53:17.111Z,18.00
2022-09-03T19:56:29.553Z,17.80
2022-09-03T19:59:21.543Z,17.70
2022-09-03T20:02:07.523Z,17.70
2022-09-03T20:05:03.502Z,17.60
2022-09-03T20:07:50.231Z,17.60
2022-09-03T20:10:24.827Z,17.70
2022-09-03T20:13:05.623Z,17.70
2022-09-03T20:16:07.277Z,17.70
2022-09-03T20:18:45.219Z,17.70
2022-09-03T20:21:26.154Z,17.60
2022-09-03T20:24:31.550Z,17.60
2022-09-03T20:27:10.687Z,17.60
2022-09-03T20:30:01.751Z,17.60
2022-09-03T20:32:49.116Z,17.50
2022-09-03T20:35:26.094Z,17.50
2022-09-03T20:38:17.816Z,17.50
2022-09-03T20:41:13.743Z,17.40
2022-09-03T20:43:44.147Z,17.40
2022-09-03T20:46:38.395Z,17.40
2022-09-03T20:49:40.858Z,17.40
2022-09-03T20:52:18.500Z,17.30
2022-09-03T20:55:12.943Z,17.30
2022-09-03T20:57:55.825Z,17.20
2022-09-03T21:00:23.494Z,17.30
2022-09-03T21:03:08.124Z,17.20
2022-09-03T21:05:56.037Z,17.20
2022-09-03T21:08:48.342Z,17.10
2022-09-03T21:11:20.178Z,17.00
2022-09-03T21:13:52.517Z,17.00
2022-09-03T21:16:52.783Z,17.00
2022-09-03T21:19:41.342Z,17.00
2022-09-03T21:22:40.199Z,16.90
2022-09-03T21:25:34.938Z,16.80
2022-09-03T21:28:05.213Z,16.90
2022-09-03T21:30:37.780Z,16.90
2022-09-03T21:33:36.938Z,17.00
2022-09-03T21:36:15.764Z,16.80
2022-09-03T21:38:49.318Z,16.70
2022-09-03T21:41:29.345Z,16.70
2022-09-03T21:44:19.865Z,16.70
2022-09-03T21:46:58.097Z,16.70
2022-09-03T21:49:47.542Z,16.60
2022-09-03T21:52:26.106Z,16.60
2022-09-03T21:54:53.728Z,16.60
2022-09-03T21:57:37.928Z,16.50
2022-09-03T22:00:18.508Z,16.50
2022-09-03T22:02:47.318Z,16.50
2022-09-03T22:05:16.394Z,16.40
2022-09-03T22:08:08.893Z,16.40
2022-09-03T22:10:58.519Z,16.40
2022-09-03T22:13:33.528Z,16.30
2022-09-03T22:16:14.820Z,16.40
2022-09-03T22:18:44.058Z,16.50
2022-09-03T22:21:44.411Z,16.50
2022-09-03T22:24:24.430Z,16.40
2022-09-03T22:27:06.286Z,16.40
2022-09-03T22:29:53.086Z,16.30
2022-09-03T22:32:38.771Z,16.30
2022-09-03T22:35:18.370Z,16.30
2022-09-03T22:38:03.237Z,16.20
2022-09-03T22:40:52.665Z,16.20
2022-09-03T22:43:37.634Z,16.10
2022-09-03T22:46:09.315Z,16.20
2022-09-03T22:48:36.473Z,16.10
2022-09-03T22:51:03.912Z,16.10
2022-09-03T22:53:58.421Z,16.10
2022-09-03T22:56:26.048Z,16.10
2022-09-03T22:59:01.114Z,16.00
2022-09-03T23:01:41.114Z,16.00
2022-09-03T23:04:30.440Z,16.10
2022-09-03T23:07:43.330Z,16.00
2022-09-03T23:10:25.659Z,16.00
2022-09-03T23:13:14.481Z,16.00
2022-09-03T23:15:42.197Z,16.10
2022-09-03T23:18:17.725Z,16.20
2022-09-03T23:20:57.926Z,16.10
2022-09-03T23:23:31.668Z,16.00
2022-09-03T23:26:23.709Z,16.00
2022-09-03T23:29:16.563Z,16.00
2022-09-03T23:31:43.752Z,16.00
2022-09-03T23:34:11.866Z,16.00
2022-09-03T23:37:32.512Z,16.00
2022-09-03T23:40:10.372Z,16.00
2022-09-03T23:43:15.343Z,16.20
2022-09-03T23:46:20.338Z,16.10
2022-09-03T23:49:05.443Z,16.10
2022-09-03T23:51:44.911Z,16.20
2022-09-03T23:54:37.392Z,16.10
2022-09-03T23:57:24.830Z,16.20
